createdAt,value
2023-01-11T00:01:01.568Z,63.54
2023-01-11T00:06:02.735Z,64.30
2023-01-11T00:11:03.853Z,64.51
2023-01-11T00:16:05.098Z,64.51
2023-01-11T00:21:06.719Z,63.85
2023-01-11T00:26:05.895Z,63.37
2023-01-11T00:31:07.072Z,63.47
2023-01-11T00:36:08.219Z,64.17
2023-01-11T00:41:09.382Z,65.09
2023-01-11T00:46:10.592Z,64.78
2023-01-11T00:51:11.681Z,65.09
2023-01-11T00:56:12.863Z,63.44
2023-01-11T01:01:14.056Z,63.21
2023-01-11T01:06:15.288Z,63.42
2023-01-11T01:11:16.465Z,64.06
2023-01-11T01:16:21.487Z,63.75
2023-01-11T01:21:18.599Z,63.93
2023-01-11T01:26:20.750Z,63.72
2023-01-11T01:31:20.301Z,63.42
2023-01-11T01:36:19.520Z,63.39
2023-01-11T01:41:21.162Z,63.18
2023-01-11T01:46:20.355Z,62.15
2023-01-11T01:51:21.531Z,64.34
2023-01-11T01:56:22.683Z,65.17
2023-01-11T02:01:23.919Z,64.00
2023-01-11T02:06:25.068Z,63.39
2023-01-11T02:11:26.285Z,63.28
2023-01-11T02:16:27.432Z,63.51
2023-01-11T02:21:28.619Z,64.24
2023-01-11T02:26:29.797Z,62.59
2023-01-11T02:31:30.972Z,62.46
2023-01-11T02:36:32.115Z,62.17
2023-01-11T02:41:33.198Z,61.83
2023-01-11T02:46:34.462Z,61.94
2023-01-11T02:51:35.564Z,62.17
2023-01-11T02:56:36.679Z,62.59
2023-01-11T03:01:37.845Z,63.00
2023-01-11T03:06:39.056Z,63.93
2023-01-11T03:11:40.264Z,64.03
2023-01-11T03:16:41.531Z,63.31
2023-01-11T03:21:42.694Z,62.76
2023-01-11T03:26:43.856Z,63.07
2023-01-11T03:31:45.056Z,63.00
2023-01-11T03:36:46.157Z,61.73
2023-01-11T03:41:47.285Z,62.17
2023-01-11T03:46:48.563Z,62.27
2023-01-11T03:51:49.753Z,61.45
2023-01-11T03:56:50.982Z,63.10
2023-01-11T04:01:52.094Z,63.13
2023-01-11T04:06:53.249Z,62.82
2023-01-11T04:11:54.339Z,63.47
2023-01-11T04:16:55.607Z,63.89
2023-01-11T04:21:56.744Z,63.75
2023-01-11T04:26:57.891Z,63.37
2023-01-11T04:31:58.994Z,63.26
2023-01-11T04:37:00.130Z,62.85
2023-01-11T04:42:01.253Z,63.06
2023-01-11T04:47:02.424Z,63.26
2023-01-11T04:52:03.527Z,62.85
2023-01-11T04:57:04.838Z,63.47
2023-01-11T05:02:06.006Z,63.99
2023-01-11T05:07:07.174Z,63.68
2023-01-11T05:12:08.327Z,62.95
2023-01-11T05:17:09.583Z,62.75
2023-01-11T05:22:10.741Z,63.89
2023-01-11T05:27:10.908Z,63.16
2023-01-11T05:32:12.077Z,64.43
2023-01-11T05:37:12.277Z,66.29
2023-01-11T05:42:14.528Z,66.39
2023-01-11T05:47:13.672Z,65.12
2023-01-11T05:52:14.846Z,63.44
2023-01-11T05:57:16.033Z,63.75
2023-01-11T06:02:17.373Z,63.03
2023-01-11T06:07:18.673Z,63.34
2023-01-11T06:12:19.895Z,63.78
2023-01-11T06:17:21.073Z,64.30
2023-01-11T06:22:22.316Z,65.12
2023-01-11T06:27:23.538Z,64.48
2023-01-11T06:32:24.717Z,63.21
2023-01-11T06:37:25.977Z,63.10
2023-01-11T06:42:27.133Z,62.48
2023-01-11T06:47:28.292Z,63.21
2023-01-11T06:52:29.481Z,62.87
2023-01-11T06:57:30.663Z,65.17
2023-01-11T07:02:31.945Z,68.06
2023-01-11T07:07:33.180Z,64.73
2023-01-11T07:12:34.419Z,63.87
2023-01-11T07:17:35.663Z,61.50
2023-01-11T07:22:37.267Z,63.15
2023-01-11T07:27:36.521Z,62.43
2023-01-11T07:32:37.782Z,63.18
2023-01-11T07:37:38.979Z,63.39
2023-01-11T07:42:40.188Z,64.18
2023-01-11T07:47:41.403Z,63.64
2023-01-11T07:52:42.575Z,64.98
2023-01-11T07:57:43.732Z,63.74
2023-01-11T08:02:44.989Z,63.81
2023-01-11T08:07:46.156Z,63.81
2023-01-11T08:12:48.231Z,66.01
2023-01-11T08:17:48.622Z,65.80
2023-01-11T08:22:49.907Z,65.28
2023-01-11T08:27:51.138Z,66.97
2023-01-11T08:32:52.339Z,64.74
2023-01-11T08:37:53.478Z,64.06
2023-01-11T08:42:55.613Z,63.10
2023-01-11T08:47:54.723Z,63.10
2023-01-11T08:52:55.852Z,63.72
2023-01-11T08:57:56.994Z,63.82
2023-01-11T09:02:58.182Z,64.54
2023-01-11T09:07:59.310Z,64.11
2023-01-11T09:13:00.416Z,59.89
2023-01-11T09:18:01.540Z,62.58
2023-01-11T09:23:03.733Z,62.81
2023-01-11T09:28:21.886Z,62.92
2023-01-11T09:33:04.025Z,61.96
2023-01-11T09:38:03.128Z,62.58
2023-01-11T09:43:04.265Z,62.16
2023-01-11T09:48:06.414Z,61.42
2023-01-11T09:53:05.576Z,61.21
2023-01-11T09:58:06.908Z,61.83
2023-01-11T10:03:08.119Z,61.72
2023-01-11T10:18:39.530Z,61.83
2023-01-11T10:23:10.244Z,62.04
2023-01-11T10:28:09.390Z,62.34
2023-01-11T10:33:10.531Z,62.11
2023-01-11T10:38:11.610Z,63.06
2023-01-11T10:43:13.791Z,62.21
2023-01-11T10:48:12.943Z,62.21
2023-01-11T10:53:15.105Z,61.29
2023-01-11T10:58:14.261Z,59.80
2023-01-11T11:03:14.063Z,59.89
2023-01-11T11:08:15.206Z,60.00
2023-01-11T11:13:17.350Z,60.41
2023-01-11T11:18:17.465Z,61.13
2023-01-11T11:23:16.620Z,62.18
2023-01-11T11:28:17.745Z,61.77
2023-01-11T11:33:18.877Z,61.36
2023-01-11T11:38:23.029Z,61.46
2023-01-11T11:43:21.492Z,61.36
2023-01-11T11:48:21.770Z,61.29
2023-01-11T11:53:21.920Z,61.60
2023-01-11T11:58:21.054Z,61.39
2023-01-11T12:03:22.223Z,61.90
2023-01-11T12:08:24.352Z,61.80
2023-01-11T12:13:24.600Z,61.57
2023-01-11T12:18:23.762Z,62.08
2023-01-11T12:23:24.876Z,61.44
2023-01-11T12:28:26.042Z,61.87
2023-01-11T12:33:27.179Z,61.87
2023-01-11T12:38:28.322Z,61.67
2023-01-11T12:43:29.468Z,61.46
2023-01-11T12:48:31.603Z,62.52
2023-01-11T12:53:30.707Z,62.52
2023-01-11T12:58:31.866Z,63.65
2023-01-11T13:03:33.036Z,63.96
2023-01-11T13:08:34.205Z,62.62
2023-01-11T13:13:35.384Z,64.06
2023-01-11T13:18:36.548Z,65.97
2023-01-11T13:23:37.700Z,67.75
2023-01-11T13:28:38.893Z,70.94
2023-01-11T13:33:40.072Z,71.21
2023-01-11T13:38:42.377Z,73.23
2023-01-11T13:43:41.501Z,73.88
2023-01-11T13:48:42.649Z,74.05
2023-01-11T13:53:43.804Z,77.38
2023-01-11T13:58:44.928Z,80.26
2023-01-11T14:03:46.168Z,80.57
2023-01-11T14:08:47.516Z,82.73
2023-01-11T14:13:48.649Z,76.56
2023-01-11T14:18:49.798Z,81.63
2023-01-11T14:23:52.251Z,83.07
2023-01-11T14:28:51.415Z,85.96
2023-01-11T14:33:52.544Z,83.77
2023-01-11T14:38:53.697Z,84.25
2023-01-11T14:43:54.831Z,86.99
2023-01-11T14:48:55.963Z,90.31
2023-01-11T14:53:57.131Z,90.14
2023-01-11T14:58:58.253Z,91.17
2023-01-11T15:04:00.425Z,91.54
2023-01-11T15:09:00.549Z,86.02
2023-01-11T15:13:59.730Z,82.57
2023-01-11T15:19:00.846Z,85.11
2023-01-11T15:24:02.010Z,83.15
2023-01-11T15:29:03.138Z,77.93
2023-01-11T15:34:04.333Z,76.35
2023-01-11T15:39:06.498Z,76.25
2023-01-11T15:44:05.630Z,79.82
2023-01-11T15:49:06.814Z,79.55
2023-01-11T15:54:07.962Z,80.62
2023-01-11T15:59:09.082Z,80.16
2023-01-11T16:04:11.005Z,81.40
2023-01-11T16:09:10.148Z,81.51
2023-01-11T16:14:11.398Z,82.78
2023-01-11T16:19:12.547Z,84.43
2023-01-11T16:24:14.741Z,84.67
2023-01-11T16:29:13.855Z,82.47
2023-01-11T16:34:15.978Z,80.79
2023-01-11T16:39:15.094Z,81.40
2023-01-11T16:44:16.207Z,80.65
2023-01-11T16:49:17.345Z,81.67
2023-01-11T16:54:18.521Z,81.26
2023-01-11T16:59:19.702Z,79.88
2023-01-11T17:04:20.847Z,80.51
2023-01-11T17:09:21.983Z,80.85
2023-01-11T17:14:23.179Z,81.25
2023-01-11T17:19:24.383Z,81.15
2023-01-11T17:24:25.584Z,83.59
2023-01-11T17:29:26.741Z,84.11
2023-01-11T17:34:28.865Z,84.97
2023-01-11T17:39:29.022Z,85.07
2023-01-11T17:44:29.158Z,84.45
2023-01-11T17:49:29.293Z,85.49
2023-01-11T17:54:29.465Z,85.59
2023-01-11T17:59:29.606Z,86.24
2023-01-11T18:04:28.747Z,86.45
2023-01-11T18:09:29.892Z,87.07
2023-01-11T18:14:32.077Z,86.04
2023-01-11T18:19:34.251Z,88.06
2023-01-11T18:24:31.464Z,91.81
2023-01-11T18:29:32.749Z,91.71
2023-01-11T18:34:36.149Z,93.46
2023-01-11T18:39:35.485Z,93.98
2023-01-11T18:44:37.840Z,94.38
2023-01-11T18:49:36.999Z,94.90
2023-01-11T18:54:39.331Z,96.03
2023-01-11T18:59:38.511Z,96.49
2023-01-11T19:04:40.977Z,97.17
2023-01-11T19:09:41.183Z,97.27
2023-01-11T19:14:40.361Z,97.33
2023-01-11T19:19:41.538Z,97.69
2023-01-11T19:24:42.735Z,97.80
2023-01-11T19:29:44.118Z,90.73
2023-01-11T19:34:43.568Z,92.07
2023-01-11T19:39:44.802Z,94.68
2023-01-11T19:44:46.711Z,94.77
2023-01-11T19:49:45.984Z,95.99
2023-01-11T19:54:47.343Z,97.99
2023-01-11T19:59:48.615Z,97.58
2023-01-11T20:04:49.780Z,97.48
2023-01-11T20:09:51.118Z,94.71
2023-01-11T20:14:52.580Z,95.43
2023-01-11T20:19:54.904Z,94.60
2023-01-11T20:24:54.031Z,96.77
2023-01-11T20:29:55.211Z,97.28
2023-01-11T20:34:56.366Z,98.36
2023-01-11T20:39:57.746Z,98.50
2023-01-11T20:44:59.150Z,97.27
2023-01-11T20:49:59.349Z,96.09
2023-01-11T20:55:00.611Z,96.50
2023-01-11T21:00:01.799Z,97.83
2023-01-11T21:05:03.057Z,98.24
2023-01-11T21:10:04.299Z,98.35
2023-01-11T21:15:05.462Z,98.24
2023-01-11T21:20:06.658Z,98.50
2023-01-11T21:25:07.833Z,98.96
2023-01-11T21:30:09.024Z,99.26
2023-01-11T21:35:10.259Z,98.80
2023-01-11T21:40:11.519Z,98.91
2023-01-11T21:45:12.766Z,99.47
2023-01-11T21:50:14.023Z,99.52
2023-01-11T21:55:15.258Z,95.25
2023-01-11T22:00:16.506Z,88.99
2023-01-11T22:05:17.727Z,86.33
2023-01-11T22:10:18.884Z,86.43
2023-01-11T22:15:20.071Z,85.36
2023-01-11T22:20:21.205Z,86.54
2023-01-11T22:25:22.354Z,88.06
2023-01-11T22:30:24.499Z,89.19
2023-01-11T22:35:23.613Z,90.67
2023-01-11T22:40:24.783Z,91.44
2023-01-11T22:45:26.036Z,92.93
2023-01-11T22:50:27.175Z,92.61
2023-01-11T22:55:28.312Z,94.10
2023-01-11T23:00:30.463Z,94.77
2023-01-11T23:05:30.575Z,95.59
2023-01-11T23:10:30.720Z,95.90
2023-01-11T23:15:29.870Z,95.80
2023-01-11T23:20:31.019Z,95.07
2023-01-11T23:25:32.473Z,95.32
2023-01-11T23:30:34.648Z,94.97
2023-01-11T23:35:34.840Z,93.63
2023-01-11T23:40:33.940Z,90.25
2023-01-11T23:45:35.103Z,90.76
2023-01-11T23:50:35.267Z,82.29
2023-01-11T23:55:38.426Z,81.43
